createdAt,value
2022-08-12T00:00:44.253Z,217.35
2022-08-12T00:06:15.967Z,218.21
2022-08-12T00:11:47.964Z,221.45
2022-08-12T00:17:20.621Z,218.65
2022-08-12T00:22:58.621Z,221.30
2022-08-12T00:28:23.482Z,221.75
2022-08-12T00:33:55.099Z,222.35
2022-08-12T00:39:26.832Z,222.35
2022-08-12T00:44:58.404Z,222.96
2022-08-12T00:50:30.285Z,225.10
2022-08-12T00:56:01.795Z,224.64
2022-08-12T01:02:11.472Z,225.41
2022-08-12T01:07:05.517Z,226.50
2022-08-12T01:12:37.376Z,229.83
2022-08-12T01:18:09.225Z,229.83
2022-08-12T01:23:40.954Z,229.83
2022-08-12T01:29:12.694Z,232.93
2022-08-12T01:34:44.520Z,232.76
2022-08-12T01:40:31.595Z,233.76
2022-08-12T01:45:47.768Z,232.60
2022-08-12T01:51:24.450Z,235.44
2022-08-12T01:56:51.289Z,235.10
2022-08-12T02:02:23.042Z,234.93
2022-08-12T02:07:54.909Z,236.97
2022-08-12T02:13:43.663Z,237.48
2022-08-12T02:18:58.378Z,237.14
2022-08-12T02:24:30.167Z,240.79
2022-08-12T02:30:01.991Z,240.79
2022-08-12T02:35:33.621Z,242.39
2022-08-12T02:41:05.805Z,243.65
2022-08-12T02:46:37.403Z,245.11
2022-08-12T02:52:09.371Z,245.48
2022-08-12T02:57:41.153Z,243.47
2022-08-12T03:03:13.094Z,245.48
2022-08-12T03:08:49.171Z,245.11
2022-08-12T03:14:16.852Z,246.40
2022-08-12T03:20:09.378Z,244.38
2022-08-12T03:25:21.892Z,247.33
2022-08-12T03:30:56.653Z,243.83
2022-08-12T03:41:58.090Z,243.29
2022-08-12T03:47:29.359Z,240.97
2022-08-12T03:58:33.050Z,246.40
2022-08-12T04:15:08.066Z,244.93
2022-08-12T04:20:39.937Z,244.93
2022-08-12T04:26:11.731Z,243.83
2022-08-12T04:31:43.501Z,245.11
2022-08-12T04:37:15.062Z,243.47
2022-08-12T04:42:47.168Z,240.26
2022-08-12T04:48:18.720Z,235.94
2022-08-12T04:53:50.483Z,231.78
2022-08-12T04:59:22.259Z,230.31
2022-08-12T05:16:04.200Z,223.87
2022-08-12T05:21:31.258Z,219.97
2022-08-12T05:32:34.882Z,219.38
2022-08-12T05:38:06.644Z,218.36
2022-08-12T05:43:38.200Z,217.78
2022-08-12T05:49:10.009Z,215.07
2022-08-12T05:54:57.140Z,209.57
2022-08-12T06:00:13.430Z,206.41
2022-08-12T06:11:17.137Z,196.52
2022-08-12T06:16:49.336Z,190.91
2022-08-12T06:22:20.945Z,186.68
2022-08-12T06:28:05.862Z,186.04
2022-08-12T06:33:56.077Z,183.78
2022-08-12T06:38:56.297Z,177.34
2022-08-12T06:44:28.058Z,175.84
2022-08-12T06:50:00.013Z,169.76
2022-08-12T06:55:31.846Z,167.54
2022-08-12T07:06:35.479Z,162.65
2022-08-12T07:12:07.399Z,160.77
2022-08-12T07:17:39.142Z,160.15
2022-08-12T07:23:10.916Z,160.30
2022-08-12T07:28:42.797Z,160.30
2022-08-12T07:34:14.584Z,156.54
2022-08-12T07:39:50.127Z,154.23
2022-08-12T07:50:50.148Z,152.68
2022-08-12T08:01:53.801Z,151.57
2022-08-12T08:12:57.361Z,146.38
2022-08-12T08:18:29.098Z,145.36
2022-08-12T08:24:05.415Z,145.87
2022-08-12T08:29:35.135Z,146.64
2022-08-12T08:35:06.965Z,144.98
2022-08-12T08:40:38.961Z,144.73
2022-08-12T08:46:10.637Z,145.87
2022-08-12T08:51:42.623Z,146.38
2022-08-12T08:57:14.258Z,144.61
2022-08-12T09:02:49.018Z,145.62
2022-08-12T09:08:26.696Z,146.12
2022-08-12T09:24:55.485Z,145.74
2022-08-12T09:30:41.786Z,145.74
2022-08-12T09:36:04.689Z,147.16
2022-08-12T09:47:00.471Z,147.94
2022-08-12T09:52:32.293Z,148.07
2022-08-12T09:58:44.870Z,148.33
2022-08-12T10:03:35.859Z,149.26
2022-08-12T10:09:08.220Z,150.74
2022-08-12T10:14:39.191Z,151.71
2022-08-12T10:20:12.014Z,153.80
2022-08-12T10:26:36.752Z,154.51
2022-08-12T10:31:16.042Z,153.66
2022-08-12T10:36:46.528Z,154.23
2022-08-12T10:42:29.070Z,154.37
2022-08-12T10:48:07.360Z,154.09
2022-08-12T10:53:21.965Z,155.81
2022-08-12T10:58:53.976Z,155.38
2022-08-12T11:04:45.188Z,155.23
2022-08-12T11:10:01.447Z,156.69
2022-08-12T11:15:33.569Z,156.69
2022-08-12T11:21:05.689Z,156.84
2022-08-12T11:26:34.328Z,160.77
2022-08-12T11:32:05.821Z,161.23
2022-08-12T11:37:59.177Z,162.01
2022-08-12T11:43:19.237Z,159.23
2022-08-12T11:54:14.901Z,160.46
2022-08-12T12:02:02.924Z,162.17
2022-08-12T12:05:16.970Z,162.65
2022-08-12T12:08:36.222Z,166.21
2022-08-12T12:13:01.651Z,168.05
2022-08-12T12:18:33.756Z,168.05
2022-08-12T12:24:05.551Z,167.71
2022-08-12T12:30:13.473Z,167.21
2022-08-12T12:36:05.418Z,167.88
2022-08-12T12:40:40.955Z,168.56
2022-08-12T12:46:12.633Z,169.07
2022-08-12T12:52:06.774Z,168.05
2022-08-12T12:57:17.028Z,168.05
2022-08-12T13:02:52.971Z,168.73
2022-08-12T13:08:20.617Z,168.73
2022-08-12T13:14:09.750Z,168.22
2022-08-12T13:19:25.493Z,167.71
2022-08-12T13:24:57.180Z,168.39
2022-08-12T13:30:28.413Z,169.59
2022-08-12T13:36:06.207Z,168.90
2022-08-12T13:41:32.495Z,167.88
2022-08-12T13:47:18.532Z,167.21
2022-08-12T13:52:36.414Z,168.39
2022-08-12T13:58:12.678Z,168.90
2022-08-12T14:03:49.996Z,170.46
2022-08-12T14:09:17.318Z,169.59
2022-08-12T14:14:43.616Z,170.11
2022-08-12T14:20:15.170Z,170.98
2022-08-12T14:25:47.006Z,171.68
2022-08-12T14:31:18.918Z,170.98
2022-08-12T14:36:50.879Z,171.33
2022-08-12T14:42:22.720Z,170.11
2022-08-12T14:47:58.568Z,170.11
2022-08-12T14:59:00.089Z,169.42
2022-08-12T15:04:29.361Z,169.42
2022-08-12T15:10:01.702Z,168.39
2022-08-12T15:15:36.215Z,170.28
2022-08-12T15:21:11.483Z,169.76
2022-08-12T15:26:40.815Z,169.93
2022-08-12T15:32:15.711Z,169.93
2022-08-12T15:37:59.028Z,169.59
2022-08-12T15:45:34.221Z,171.51
2022-08-12T15:51:06.090Z,174.01
2022-08-12T15:56:38.044Z,173.83
2022-08-12T16:02:09.941Z,173.11
2022-08-12T16:07:41.732Z,171.15
2022-08-12T16:13:13.570Z,171.33
2022-08-12T16:18:45.291Z,172.21
2022-08-12T16:24:16.770Z,173.47
2022-08-12T16:29:53.366Z,172.57
2022-08-12T16:35:20.126Z,173.65
2022-08-12T16:40:52.043Z,173.29
2022-08-12T16:46:31.410Z,174.19
2022-08-12T16:51:55.902Z,173.83
2022-08-12T16:57:34.961Z,172.57
2022-08-12T17:02:59.844Z,172.57
2022-08-12T17:08:31.453Z,174.19
2022-08-12T17:14:03.381Z,174.01
2022-08-12T17:20:29.143Z,175.47
2022-08-12T17:30:39.036Z,180.40
2022-08-12T17:36:10.908Z,178.10
2022-08-12T17:41:55.922Z,177.34
2022-08-12T17:47:14.624Z,181.19
2022-08-12T17:52:50.198Z,178.29
2022-08-12T18:04:04.397Z,178.67
2022-08-12T18:09:24.602Z,180.21
2022-08-12T18:14:55.168Z,179.24
2022-08-12T18:20:26.964Z,180.02
2022-08-12T18:26:14.520Z,181.58
2022-08-12T18:31:44.568Z,181.58
2022-08-12T18:37:26.621Z,183.38
2022-08-12T18:42:33.467Z,183.58
2022-08-12T18:54:06.648Z,185.83
2022-08-12T18:59:10.040Z,185.01
2022-08-12T19:04:40.670Z,184.89
2022-08-12T19:10:12.329Z,186.45
2022-08-12T19:15:44.142Z,186.24
2022-08-12T19:21:20.298Z,185.94
2022-08-12T19:26:47.837Z,187.32
2022-08-12T19:32:23.235Z,185.62
2022-08-12T19:38:03.808Z,187.43
2022-08-12T19:43:23.330Z,189.15
2022-08-12T19:48:58.878Z,189.48
2022-08-12T19:54:30.187Z,191.25
2022-08-12T20:00:04.245Z,190.25
2022-08-12T20:06:06.684Z,192.71
2022-08-12T20:12:13.579Z,193.16
2022-08-12T20:16:52.302Z,193.28
2022-08-12T20:22:05.225Z,195.81
2022-08-12T20:28:02.491Z,196.40
2022-08-12T20:33:17.529Z,197.94
2022-08-12T20:38:40.504Z,197.94
2022-08-12T20:49:44.217Z,201.22
2022-08-12T20:55:19.478Z,203.34
2022-08-12T21:00:47.734Z,203.21
2022-08-12T21:06:19.485Z,204.99
2022-08-12T21:11:51.325Z,204.86
2022-08-12T21:14:16.418Z,209.17
2022-08-12T21:19:51.999Z,211.19
2022-08-12T21:25:17.711Z,212.97
2022-08-12T21:31:11.694Z,213.25
2022-08-12T21:36:22.545Z,213.25
2022-08-12T21:41:53.044Z,214.22
2022-08-12T21:47:24.528Z,215.35
2022-08-12T21:52:56.313Z,215.63
2022-08-12T21:58:28.138Z,217.06
2022-08-12T22:04:04.065Z,216.77
2022-08-12T22:09:42.550Z,217.63
2022-08-12T22:15:04.386Z,218.07
2022-08-12T22:20:36.297Z,218.50
2022-08-12T22:26:07.787Z,218.21
2022-08-12T22:31:39.916Z,220.56
2022-08-12T22:37:20.328Z,220.12
2022-08-12T22:48:20.110Z,223.11
2022-08-12T22:53:46.822Z,220.71
2022-08-12T22:59:18.749Z,220.56
2022-08-12T23:04:50.303Z,220.86
2022-08-12T23:10:21.526Z,223.26
2022-08-12T23:15:55.267Z,225.25
2022-08-12T23:21:24.889Z,223.87
2022-08-12T23:26:57.101Z,224.02
2022-08-12T23:32:53.948Z,224.02
2022-08-12T23:38:00.290Z,224.95
2022-08-12T23:43:39.415Z,224.79
2022-08-12T23:54:44.063Z,226.03
